University Park, PA

11:42 AM EST on February 28, 2015 (GMT -0500)
College Heights | Change Station
CLOSE
Current Station
Personal Weather Station
Location: State College, PA
Elevation: 1219 ft
Nearby Weather Stations

Elev 1219 ft 40.80 °N, 77.87 °W | Updated 29 seconds ago

Clear
Clear
17.4 °F
Feels Like 17 °F
N
3.0
Wind Variable Wind from East
Gusts 5.0 mph

Today
High -- | Low -- °F
--% Chance of Precip.
Yesterday
High -- | Low -- °F
Precip. -- in
6:47 AM 6:01 PM
Waxing Gibbous, 78% visible
Pressure 30.77 in
Visibility 10.0 miles
Clouds Clear
Windchill 17 °F
Dew Point 1 °F
Humidity 48%
Rainfall 0.00 in
Snow Depth Not available.
UV 4 out of 12
Pollen .50 out of 12
Air Quality Not available.
Flu Activity Not available.
METAR KUNV 281553Z 00000KT 10SM SKC M10/M19 A3077

More Conditions Fewer Conditions

Pressure 30.77 in
Visibility 10.0 miles
Clouds Clear
Windchill 17 °F
Dew Point 1 °F
Humidity 48%
Rainfall 0.00 in
Snow Depth Not available.
UV 4 out of 12
Pollen .50 out of 12
Air Quality Not available.
Flu Activity Not available.
METAR KUNV 281553Z 00000KT 10SM SKC M10/M19 A3077

More Conditions Fewer Conditions

10-Day Weather Forecast

Almanac

Astronomy

Feb. 28, 2015 Rise Set
Actual Time
Civil Twilight
Nautical Twilight
Astronomical Twilight
Moon
Length of Visible Light
Length of Day
Tomorrow will be .
, % of the Moon is Illuminated

Today's Extremes

State Highs State Lows

Community

WunderPhotos

Upload Photos

1,801,081 photos uploaded!

WunderBlogs® & News

Nearby

Air Quality

  Air Quality AQ Index Pollutant
Not available.

Snow Depth

Station Depth Elevation

Earthquake Activity

City Distance Mag. Time & Date
Minimum magnitude displayed is 2.5.

Coastal Water Temperatures

Place Temperature

Nearby Weather Stations